Time;durP1;ratioP1;P1;durP2;ratioP2;P2;SDS_P1;SDS_P2;PMS_P1;PMS_P2;Temp;Humidity;BMP_temperature;BMP_pressure;BME280_temperature;BME280_humidity;BME280_pressure;Samples;Min_cycle;Max_cycle;Signal;HPM_P1;HPM_P2
2023/02/08 00:01:11;;;;;;;7.15;4.35;;;;;;;;;;5146103;27;20019;-72
2023/02/08 00:03:37;;;;;;;6.05;3.83;;;;;;;;;;5148237;27;20050;-71
2023/02/08 00:06:03;;;;;;;4.82;3.83;;;;;;;;;;5148089;27;20123;-72
2023/02/08 00:08:30;;;;;;;5.60;3.50;;;;;;;;;;5146607;27;20107;-72
2023/02/08 00:10:56;;;;;;;7.32;3.97;;;;;;;;;;5147589;27;20035;-72
2023/02/08 00:13:23;;;;;;;4.03;3.03;;;;;;;;;;5148097;27;20465;-71
2023/02/08 00:15:51;;;;;;;6.38;3.67;;;;;;;;;;5148069;27;20034;-72
2023/02/08 00:18:18;;;;;;;6.38;3.65;;;;;;;;;;5146018;27;20026;-71
2023/02/08 00:20:44;;;;;;;7.47;3.65;;;;;;;;;;5144705;27;20035;-71
2023/02/08 00:23:11;;;;;;;5.75;3.58;;;;;;;;;;5146495;27;20010;-72
2023/02/08 00:25:37;;;;;;;4.72;3.67;;;;;;;;;;5147668;27;20443;-71
2023/02/08 00:28:03;;;;;;;4.20;3.20;;;;;;;;;;5147244;27;20530;-72
2023/02/08 00:30:29;;;;;;;5.00;3.38;;;;;;;;;;5147365;27;20030;-71
2023/02/08 00:32:56;;;;;;;4.75;3.30;;;;;;;;;;5148003;27;20038;-74
2023/02/08 00:35:22;;;;;;;4.53;3.65;;;;;;;;;;5148221;27;20058;-72
2023/02/08 00:37:48;;;;;;;7.45;3.58;;;;;;;;;;5146473;27;20019;-71
2023/02/08 00:40:14;;;;;;;7.15;3.42;;;;;;;;;;5147770;27;20140;-71
2023/02/08 00:42:40;;;;;;;3.83;3.20;;;;;;;;;;5147907;27;20113;-71
2023/02/08 00:45:07;;;;;;;6.38;3.60;;;;;;;;;;5147883;27;20107;-72
2023/02/08 00:47:33;;;;;;;6.82;3.47;;;;;;;;;;5147648;27;20098;-71
2023/02/08 00:49:59;;;;;;;5.30;3.05;;;;;;;;;;5129622;27;20031;-71
2023/02/08 00:52:25;;;;;;;6.03;3.25;;;;;;;;;;5146004;27;20101;-72
2023/02/08 00:54:51;;;;;;;5.85;3.55;;;;;;;;;;5147916;27;20118;-72
2023/02/08 00:57:17;;;;;;;5.63;3.58;;;;;;;;;;5147767;27;20071;-75
2023/02/08 00:59:44;;;;;;;7.65;3.72;;;;;;;;;;5147375;27;20042;-73
2023/02/08 01:02:10;;;;;;;4.45;3.60;;;;;;;;;;5146400;27;20042;-72
2023/02/08 01:04:36;;;;;;;5.18;3.40;;;;;;;;;;5145499;27;20067;-71
2023/02/08 01:07:03;;;;;;;5.25;3.70;;;;;;;;;;5148039;27;20079;-73
2023/02/08 01:09:29;;;;;;;5.00;3.55;;;;;;;;;;5147340;27;20113;-72
2023/02/08 01:11:56;;;;;;;6.43;4.20;;;;;;;;;;5147518;27;20093;-72
2023/02/08 01:14:22;;;;;;;4.93;3.67;;;;;;;;;;5145636;27;20083;-72
2023/02/08 01:16:48;;;;;;;4.50;3.40;;;;;;;;;;5147122;27;20015;-71
2023/02/08 01:19:15;;;;;;;5.90;3.90;;;;;;;;;;5147672;27;20046;-73
2023/02/08 01:21:42;;;;;;;4.20;3.30;;;;;;;;;;5147050;27;20021;-74
2023/02/08 01:24:09;;;;;;;6.65;4.00;;;;;;;;;;5146838;27;20051;-71
2023/02/08 01:26:35;;;;;;;5.32;3.80;;;;;;;;;;5145784;27;20094;-71
2023/02/08 01:29:02;;;;;;;5.95;3.63;;;;;;;;;;5146829;27;20072;-71
2023/02/08 01:31:30;;;;;;;6.75;4.30;;;;;;;;;;5128481;27;20018;-72
2023/02/08 01:33:57;;;;;;;5.03;3.83;;;;;;;;;;5146824;27;20109;-72
2023/02/08 01:36:24;;;;;;;5.30;3.63;;;;;;;;;;5147121;27;20109;-72
2023/02/08 01:38:50;;;;;;;4.20;3.08;;;;;;;;;;5145258;27;20275;-71
2023/02/08 01:41:18;;;;;;;6.40;3.35;;;;;;;;;;5146976;27;20103;-71
2023/02/08 01:44:02;;;;;;;5.75;3.95;;;;;;;;;;5146812;27;20106;-71
2023/02/08 01:46:29;;;;;;;4.28;3.33;;;;;;;;;;5134981;27;20083;-71
2023/02/08 01:48:57;;;;;;;4.82;3.15;;;;;;;;;;5146410;27;20066;-72
2023/02/08 01:51:25;;;;;;;4.78;3.42;;;;;;;;;;5145229;27;20097;-71
2023/02/08 01:53:52;;;;;;;5.53;3.47;;;;;;;;;;5146497;27;20046;-71
2023/02/08 01:56:28;;;;;;;4.63;3.25;;;;;;;;;;5146412;27;20019;-72
2023/02/08 01:58:57;;;;;;;5.57;3.50;;;;;;;;;;5146562;27;20110;-72
2023/02/08 02:01:25;;;;;;;3.55;2.92;;;;;;;;;;5146498;27;20482;-71
2023/02/08 02:03:51;;;;;;;5.57;3.55;;;;;;;;;;5145171;27;20106;-72
2023/02/08 02:06:19;;;;;;;4.75;3.65;;;;;;;;;;5146267;27;20026;-73
2023/02/08 02:08:51;;;;;;;5.20;3.70;;;;;;;;;;5146346;27;20105;-71
2023/02/08 02:11:17;;;;;;;;;;;;;;;;;;5146864;27;20031;-72
2023/02/08 02:13:43;;;;;;;4.47;3.45;;;;;;;;;;5145392;27;19952;-71
2023/02/08 02:16:09;;;;;;;4.90;3.78;;;;;;;;;;5127403;27;20035;-71
2023/02/08 02:18:36;;;;;;;5.15;3.38;;;;;;;;;;5146061;27;20026;-73
2023/02/08 02:21:20;;;;;;;4.68;3.10;;;;;;;;;;5146463;27;20030;-71
2023/02/08 02:24:09;;;;;;;4.53;3.42;;;;;;;;;;5132624;27;20011;-71
2023/02/08 02:26:55;;;;;;;6.05;3.08;;;;;;;;;;5094911;27;20113;-71
2023/02/08 02:29:30;;;;;;;5.60;3.58;;;;;;;;;;5131334;27;20026;-72
2023/02/08 02:32:12;;;;;;;5.70;3.38;;;;;;;;;;5145631;27;20142;-71
2023/02/08 02:34:41;;;;;;;3.85;2.78;;;;;;;;;;5146033;27;20026;-71
2023/02/08 02:37:17;;;;;;;4.50;3.20;;;;;;;;;;5145528;27;20098;-71
2023/02/08 02:39:49;;;;;;;4.68;3.10;;;;;;;;;;5144193;27;20027;-71
2023/02/08 02:45:28;;;;;;;5.22;3.05;;;;;;;;;;5146054;27;20029;-71
2023/02/08 02:47:58;;;;;;;6.80;3.00;;;;;;;;;;5145798;27;20691;-71
2023/02/08 02:50:24;;;;;;;4.07;3.13;;;;;;;;;;5148468;27;20048;-71
2023/02/08 02:52:56;;;;;;;4.95;3.15;;;;;;;;;;5146548;27;20034;-73
2023/02/08 02:55:22;;;;;;;;;;;;;;;;;;5148813;27;20106;-71
2023/02/08 02:57:49;;;;;;;4.65;2.67;;;;;;;;;;5147992;27;19985;-72
2023/02/08 03:00:21;;;;;;;6.75;3.20;;;;;;;;;;5148143;27;20033;-76
2023/02/08 03:02:47;;;;;;;4.32;2.92;;;;;;;;;;5147973;27;20159;-75
2023/02/08 03:05:13;;;;;;;3.90;3.03;;;;;;;;;;5129235;27;20453;-72
2023/02/08 03:07:54;;;;;;;5.88;3.72;;;;;;;;;;5146635;27;20023;-71
2023/02/08 03:10:20;;;;;;;5.22;2.83;;;;;;;;;;5147701;27;20083;-72
2023/02/08 03:13:19;;;;;;;3.85;3.20;;;;;;;;;;5146766;27;20702;-76
2023/02/08 03:15:48;;;;;;;4.80;3.53;;;;;;;;;;5101663;27;20371;-72
2023/02/08 03:18:33;;;;;;;3.83;3.13;;;;;;;;;;5146205;27;20027;-72
2023/02/08 03:21:02;;;;;;;6.43;3.10;;;;;;;;;;5147951;27;20898;-71
2023/02/08 03:23:30;;;;;;;3.88;2.83;;;;;;;;;;5147978;27;20094;-72
2023/02/08 03:25:56;;;;;;;5.07;2.85;;;;;;;;;;5147430;27;20026;-71
2023/02/08 03:28:26;;;;;;;4.20;3.30;;;;;;;;;;5149567;27;20546;-71
2023/02/08 03:31:05;;;;;;;5.60;3.20;;;;;;;;;;5150475;27;20045;-72
2023/02/08 03:33:37;;;;;;;5.15;3.50;;;;;;;;;;5151924;27;20118;-73
2023/02/08 03:36:10;;;;;;;5.57;3.45;;;;;;;;;;5151977;27;20102;-71
2023/02/08 03:38:37;;;;;;;11.00;3.75;;;;;;;;;;5151992;27;20065;-72
2023/02/08 03:41:06;;;;;;;6.25;3.53;;;;;;;;;;5151534;27;20721;-71
2023/02/08 03:43:35;;;;;;;5.57;3.05;;;;;;;;;;5149872;27;20079;-74
2023/02/08 03:46:13;;;;;;;5.35;3.47;;;;;;;;;;5151713;27;20025;-73
2023/02/08 03:48:41;;;;;;;4.65;3.60;;;;;;;;;;5151637;27;20062;-72
2023/02/08 03:51:09;;;;;;;5.88;3.45;;;;;;;;;;5151868;27;20029;-71
2023/02/08 03:53:38;;;;;;;4.68;3.65;;;;;;;;;;5151354;27;20023;-71
2023/02/08 03:56:08;;;;;;;4.88;2.80;;;;;;;;;;5150076;27;20075;-71
2023/02/08 03:58:38;;;;;;;6.15;4.00;;;;;;;;;;5151295;27;20014;-72
2023/02/08 04:01:10;;;;;;;4.18;3.40;;;;;;;;;;5151435;27;20060;-73
2023/02/08 04:03:37;;;;;;;4.05;3.28;;;;;;;;;;5151342;27;20026;-71
2023/02/08 04:06:03;;;;;;;4.72;3.35;;;;;;;;;;5151534;27;20030;-71
2023/02/08 04:08:29;;;;;;;4.10;3.28;;;;;;;;;;5149605;27;20089;-72
2023/02/08 04:10:55;;;;;;;6.43;3.55;;;;;;;;;;5151395;27;20033;-71
2023/02/08 04:13:22;;;;;;;4.40;3.38;;;;;;;;;;5150923;27;20122;-71
2023/02/08 04:15:48;;;;;;;4.72;3.22;;;;;;;;;;5151183;27;20011;-72
2023/02/08 04:18:14;;;;;;;6.50;3.42;;;;;;;;;;5133098;27;20039;-75
2023/02/08 04:20:40;;;;;;;7.53;3.20;;;;;;;;;;5143860;27;20042;-72
2023/02/08 04:23:07;;;;;;;4.30;3.40;;;;;;;;;;5146025;27;20038;-71
2023/02/08 04:25:33;;;;;;;5.85;3.88;;;;;;;;;;5146114;27;20094;-72
2023/02/08 04:27:59;;;;;;;6.03;3.47;;;;;;;;;;5144117;27;20117;-72
2023/02/08 04:30:25;;;;;;;5.00;3.40;;;;;;;;;;5145544;27;20098;-71
2023/02/08 04:32:51;;;;;;;5.40;3.60;;;;;;;;;;5126339;27;20042;-71
2023/02/08 04:35:17;;;;;;;6.72;3.42;;;;;;;;;;5145705;27;20113;-72
2023/02/08 04:37:44;;;;;;;4.88;3.40;;;;;;;;;;5143454;27;20125;-71
2023/02/08 04:40:10;;;;;;;6.18;3.63;;;;;;;;;;5138175;27;20109;-71
2023/02/08 04:42:36;;;;;;;6.78;3.90;;;;;;;;;;5145408;27;20023;-72
2023/02/08 04:45:03;;;;;;;6.32;3.10;;;;;;;;;;5145618;27;20025;-72
2023/02/08 04:47:29;;;;;;;5.50;3.60;;;;;;;;;;5145390;27;20033;-72
2023/02/08 04:49:55;;;;;;;6.38;3.63;;;;;;;;;;5145625;27;20018;-73
2023/02/08 04:52:21;;;;;;;8.52;3.72;;;;;;;;;;5144539;27;20580;-72
2023/02/08 04:54:47;;;;;;;6.57;3.83;;;;;;;;;;5144455;27;20025;-71
2023/02/08 04:57:14;;;;;;;5.75;3.65;;;;;;;;;;5145369;27;20098;-72
2023/02/08 04:59:40;;;;;;;10.90;3.67;;;;;;;;;;5126335;27;20026;-72
2023/02/08 05:02:06;;;;;;;4.28;3.20;;;;;;;;;;5126765;27;20026;-72
2023/02/08 05:04:33;;;;;;;5.93;3.72;;;;;;;;;;5143846;27;20478;-72
2023/02/08 05:06:59;;;;;;;4.90;3.35;;;;;;;;;;5126468;27;20899;-73
2023/02/08 05:09:25;;;;;;;5.38;3.13;;;;;;;;;;5144616;27;20106;-72
2023/02/08 05:11:51;;;;;;;4.30;3.00;;;;;;;;;;5145344;27;20042;-72
2023/02/08 05:14:18;;;;;;;6.70;3.47;;;;;;;;;;5126499;27;20126;-73
2023/02/08 05:16:44;;;;;;;5.53;3.65;;;;;;;;;;5142649;27;20011;-71
2023/02/08 05:19:11;;;;;;;7.95;3.70;;;;;;;;;;5144635;27;20130;-71
2023/02/08 05:21:37;;;;;;;7.07;3.05;;;;;;;;;;5144350;27;20116;-74
2023/02/08 05:24:03;;;;;;;5.07;3.60;;;;;;;;;;5144446;27;20109;-72
2023/02/08 05:26:29;;;;;;;7.28;4.00;;;;;;;;;;5143452;27;20083;-72
2023/02/08 05:28:55;;;;;;;4.65;3.67;;;;;;;;;;5144887;27;20069;-71
2023/02/08 05:31:23;;;;;;;5.25;3.42;;;;;;;;;;5144317;27;20034;-71
2023/02/08 05:33:50;;;;;;;4.95;3.72;;;;;;;;;;5144481;27;20058;-72
2023/02/08 05:36:16;;;;;;;4.28;3.25;;;;;;;;;;5144164;27;20034;-75
2023/02/08 05:38:43;;;;;;;6.38;3.28;;;;;;;;;;5144038;27;20026;-73
2023/02/08 05:41:09;;;;;;;7.57;3.63;;;;;;;;;;5142033;27;20098;-71
2023/02/08 05:43:36;;;;;;;5.70;3.72;;;;;;;;;;5144567;27;20098;-72
2023/02/08 05:46:02;;;;;;;6.07;3.92;;;;;;;;;;5124978;27;20040;-72
2023/02/08 05:48:29;;;;;;;8.02;4.40;;;;;;;;;;5142962;27;20079;-72
2023/02/08 05:50:56;;;;;;;5.18;3.75;;;;;;;;;;5143707;27;20022;-72
2023/02/08 05:53:22;;;;;;;5.38;3.50;;;;;;;;;;5144333;27;20467;-72
2023/02/08 05:55:48;;;;;;;8.75;3.95;;;;;;;;;;5144150;27;20916;-72
2023/02/08 05:58:15;;;;;;;4.68;3.85;;;;;;;;;;5144238;27;20030;-72
2023/02/08 06:00:41;;;;;;;6.47;3.88;;;;;;;;;;5142517;27;20054;-72
2023/02/08 06:03:07;;;;;;;5.93;4.30;;;;;;;;;;5143462;27;20023;-72
2023/02/08 06:05:33;;;;;;;6.20;4.07;;;;;;;;;;5143844;27;20624;-71
2023/02/08 06:08:00;;;;;;;6.43;3.90;;;;;;;;;;5143767;27;20101;-75
2023/02/08 06:10:26;;;;;;;8.20;3.88;;;;;;;;;;5142451;27;20116;-73
2023/02/08 06:12:52;;;;;;;6.28;3.85;;;;;;;;;;5143783;27;20022;-72
2023/02/08 06:15:18;;;;;;;4.65;3.80;;;;;;;;;;5144300;27;20019;-73
2023/02/08 06:17:44;;;;;;;5.65;4.15;;;;;;;;;;5142997;27;20022;-73
2023/02/08 06:20:11;;;;;;;4.57;3.65;;;;;;;;;;5142798;27;20050;-76
2023/02/08 06:22:37;;;;;;;6.45;4.25;;;;;;;;;;5142449;27;20105;-75
2023/02/08 06:25:03;;;;;;;22.63;5.40;;;;;;;;;;5141253;27;20026;-75
2023/02/08 06:27:30;;;;;;;10.18;3.83;;;;;;;;;;5144079;27;20428;-74
2023/02/08 06:29:56;;;;;;;7.38;3.92;;;;;;;;;;5142014;27;20109;-72
2023/02/08 06:32:22;;;;;;;7.63;3.90;;;;;;;;;;5142248;27;20148;-76
2023/02/08 06:34:50;;;;;;;7.95;3.80;;;;;;;;;;5141569;27;20050;-73
2023/02/08 06:37:17;;;;;;;15.50;4.63;;;;;;;;;;5141120;27;20068;-73
2023/02/08 06:39:43;;;;;;;7.63;4.75;;;;;;;;;;5141684;27;20014;-74
2023/02/08 06:42:09;;;;;;;8.45;5.40;;;;;;;;;;5134449;27;20673;-72
2023/02/08 06:44:36;;;;;;;7.90;5.15;;;;;;;;;;5140698;27;20229;-73
2023/02/08 06:47:02;;;;;;;8.63;5.88;;;;;;;;;;5137753;27;20451;-72
2023/02/08 06:49:28;;;;;;;5.93;4.60;;;;;;;;;;5139051;27;20103;-72
2023/02/08 06:51:55;;;;;;;6.28;4.07;;;;;;;;;;5139460;27;20023;-72
2023/02/08 06:54:21;;;;;;;8.10;4.38;;;;;;;;;;5135222;27;20113;-71
2023/02/08 06:56:47;;;;;;;6.22;4.30;;;;;;;;;;5139022;27;20018;-71
2023/02/08 06:59:13;;;;;;;8.80;4.20;;;;;;;;;;5132927;27;20119;-72
2023/02/08 07:01:39;;;;;;;8.38;3.70;;;;;;;;;;5140641;27;20587;-71
2023/02/08 07:04:06;;;;;;;8.48;3.60;;;;;;;;;;5137682;27;20384;-73
2023/02/08 07:06:32;;;;;;;6.25;3.60;;;;;;;;;;5144918;27;20074;-72
2023/02/08 07:08:59;;;;;;;7.85;3.33;;;;;;;;;;5143009;27;20034;-72
2023/02/08 07:11:25;;;;;;;8.57;4.57;;;;;;;;;;5143686;27;20021;-70
2023/02/08 07:13:53;;;;;;;7.50;4.68;;;;;;;;;;5142150;27;20035;-71
2023/02/08 07:16:20;;;;;;;5.70;4.30;;;;;;;;;;5138860;27;20649;-71
2023/02/08 07:18:46;;;;;;;7.00;4.30;;;;;;;;;;5133152;27;20038;-71
2023/02/08 07:21:12;;;;;;;9.60;5.53;;;;;;;;;;5138816;27;20110;-71
2023/02/08 07:23:39;;;;;;;7.80;4.40;;;;;;;;;;5120447;27;20031;-71
2023/02/08 07:26:06;;;;;;;8.00;5.15;;;;;;;;;;5136918;27;20110;-71
2023/02/08 07:28:33;;;;;;;6.43;4.63;;;;;;;;;;5137461;27;20027;-71
2023/02/08 07:30:59;;;;;;;7.57;4.57;;;;;;;;;;5141213;27;20033;-71
2023/02/08 07:33:25;;;;;;;7.57;4.75;;;;;;;;;;5138408;27;20027;-72
2023/02/08 07:35:52;;;;;;;5.25;4.18;;;;;;;;;;5136771;27;20042;-71
2023/02/08 07:38:18;;;;;;;6.10;4.20;;;;;;;;;;5137332;27;20073;-71
2023/02/08 07:40:44;;;;;;;6.53;4.30;;;;;;;;;;5145121;27;20026;-71
2023/02/08 07:43:10;;;;;;;6.80;3.90;;;;;;;;;;5139758;27;20054;-71
2023/02/08 07:45:37;;;;;;;6.05;4.00;;;;;;;;;;5132236;27;20019;-71
2023/02/08 07:48:04;;;;;;;5.43;4.18;;;;;;;;;;5140353;27;20031;-71
2023/02/08 07:50:30;;;;;;;5.45;4.15;;;;;;;;;;5136174;27;20012;-71
2023/02/08 07:52:56;;;;;;;10.48;4.35;;;;;;;;;;5143922;27;20026;-71
2023/02/08 07:55:22;;;;;;;6.97;4.40;;;;;;;;;;5139529;27;20035;-71
2023/02/08 07:57:49;;;;;;;9.27;4.10;;;;;;;;;;5140592;27;20457;-71
2023/02/08 08:00:16;;;;;;;7.22;4.35;;;;;;;;;;5139405;27;20027;-71
2023/02/08 08:02:42;;;;;;;5.40;4.07;;;;;;;;;;5134006;27;20023;-71
2023/02/08 08:05:09;;;;;;;7.18;4.35;;;;;;;;;;5134472;27;20019;-71
2023/02/08 08:07:35;;;;;;;6.05;4.00;;;;;;;;;;5140495;27;20050;-71
2023/02/08 08:10:02;;;;;;;7.75;4.78;;;;;;;;;;5142304;27;20061;-71
2023/02/08 08:12:28;;;;;;;7.57;4.80;;;;;;;;;;5136589;27;20022;-71
2023/02/08 08:14:54;;;;;;;5.00;4.13;;;;;;;;;;5140720;27;20035;-71
2023/02/08 08:17:20;;;;;;;9.15;3.90;;;;;;;;;;5141261;27;20400;-72
2023/02/08 08:19:46;;;;;;;8.90;4.32;;;;;;;;;;5134207;27;20069;-71
2023/02/08 08:22:13;;;;;;;6.13;4.05;;;;;;;;;;5142651;27;20500;-72
2023/02/08 08:24:39;;;;;;;6.68;4.63;;;;;;;;;;5131618;27;20051;-71
2023/02/08 08:27:05;;;;;;;6.53;4.05;;;;;;;;;;5122361;27;20425;-70
2023/02/08 08:29:33;;;;;;;5.63;4.38;;;;;;;;;;5137382;27;20027;-71
2023/02/08 08:31:59;;;;;;;5.75;4.10;;;;;;;;;;5140950;27;20115;-72
2023/02/08 08:34:28;;;;;;;6.18;3.75;;;;;;;;;;5136645;27;20062;-71
2023/02/08 08:37:01;;;;;;;7.18;4.28;;;;;;;;;;5136616;27;20474;-72
2023/02/08 08:39:28;;;;;;;9.57;4.15;;;;;;;;;;5118542;27;20031;-71
2023/02/08 08:41:58;;;;;;;5.53;3.83;;;;;;;;;;5136006;27;20110;-70
2023/02/08 08:44:24;;;;;;;5.78;4.10;;;;;;;;;;5137020;27;20074;-72
2023/02/08 08:46:54;;;;;;;6.28;4.10;;;;;;;;;;5133084;27;20607;-70
2023/02/08 08:49:20;;;;;;;5.13;4.15;;;;;;;;;;5138835;27;20023;-71
2023/02/08 08:51:47;;;;;;;5.40;3.58;;;;;;;;;;5136307;27;20771;-71
2023/02/08 08:54:13;;;;;;;7.70;3.65;;;;;;;;;;5134796;27;20122;-71
2023/02/08 08:56:39;;;;;;;6.72;3.90;;;;;;;;;;5135570;27;20023;-73
2023/02/08 08:59:05;;;;;;;6.63;4.20;;;;;;;;;;5135489;27;20099;-72
2023/02/08 09:01:31;;;;;;;6.15;4.13;;;;;;;;;;5140288;27;20031;-72
2023/02/08 09:03:58;;;;;;;7.78;4.53;;;;;;;;;;5138157;27;20026;-72
2023/02/08 09:06:24;;;;;;;6.85;3.70;;;;;;;;;;5137904;27;20492;-72
2023/02/08 09:08:50;;;;;;;6.15;3.97;;;;;;;;;;5140697;27;20110;-71
2023/02/08 09:11:16;;;;;;;6.50;4.50;;;;;;;;;;5138172;27;20475;-71
2023/02/08 09:13:43;;;;;;;7.40;4.05;;;;;;;;;;5141232;27;20046;-72
2023/02/08 09:16:09;;;;;;;11.00;4.72;;;;;;;;;;5141696;27;20026;-72
2023/02/08 09:18:35;;;;;;;5.68;3.53;;;;;;;;;;5138824;27;20031;-72
2023/02/08 09:21:09;;;;;;;10.70;4.75;;;;;;;;;;5135632;27;20098;-71
2023/02/08 09:23:35;;;;;;;8.07;4.32;;;;;;;;;;5138075;27;20035;-72
2023/02/08 09:26:02;;;;;;;8.80;4.50;;;;;;;;;;5138101;27;20019;-72
2023/02/08 09:28:28;;;;;;;7.53;4.40;;;;;;;;;;5137327;27;20030;-71
2023/02/08 09:30:55;;;;;;;6.78;4.40;;;;;;;;;;5138723;27;20427;-72
2023/02/08 09:33:21;;;;;;;4.85;3.80;;;;;;;;;;5141369;27;20122;-71
2023/02/08 09:35:47;;;;;;;6.43;3.33;;;;;;;;;;5137085;27;20079;-71
2023/02/08 09:38:13;;;;;;;8.65;3.83;;;;;;;;;;5134769;27;20386;-72
2023/02/08 09:40:47;;;;;;;5.78;3.42;;;;;;;;;;5137124;27;20097;-72
2023/02/08 09:43:19;;;;;;;7.13;3.22;;;;;;;;;;5139933;27;20027;-71
2023/02/08 09:45:48;;;;;;;7.35;3.40;;;;;;;;;;5134293;27;20059;-71
2023/02/08 09:48:31;;;;;;;7.35;4.25;;;;;;;;;;5137764;27;20506;-71
2023/02/08 09:51:10;;;;;;;5.05;3.70;;;;;;;;;;5138124;27;20030;-71
2023/02/08 09:53:39;;;;;;;6.15;3.83;;;;;;;;;;5136118;27;20037;-71
2023/02/08 09:56:09;;;;;;;8.73;3.50;;;;;;;;;;5135521;27;20015;-71
2023/02/08 09:58:38;;;;;;;8.57;4.22;;;;;;;;;;5136426;27;20133;-71
2023/02/08 10:01:06;;;;;;;11.93;4.10;;;;;;;;;;5141247;27;20105;-71
2023/02/08 10:03:35;;;;;;;7.97;4.10;;;;;;;;;;5137365;27;20402;-71
2023/02/08 10:06:02;;;;;;;7.18;3.83;;;;;;;;;;5118749;27;20058;-71
2023/02/08 10:08:29;;;;;;;5.70;3.30;;;;;;;;;;5138250;27;20023;-72
2023/02/08 10:10:58;;;;;;;6.07;3.20;;;;;;;;;;5131620;27;20034;-72
2023/02/08 10:13:45;;;;;;;7.80;3.70;;;;;;;;;;5137666;27;20119;-72
2023/02/08 10:16:11;;;;;;;8.23;4.10;;;;;;;;;;5136678;27;20018;-72
2023/02/08 10:19:01;;;;;;;5.40;4.07;;;;;;;;;;5136871;27;20102;-72
2023/02/08 10:21:53;;;;;;;9.75;4.25;;;;;;;;;;5133872;27;20031;-72
2023/02/08 10:24:27;;;;;;;6.57;4.32;;;;;;;;;;5134321;27;20106;-71
2023/02/08 10:27:02;;;;;;;5.47;3.53;;;;;;;;;;5136450;27;20046;-71
2023/02/08 10:29:29;;;;;;;4.47;3.20;;;;;;;;;;5135615;27;20022;-71
2023/02/08 10:31:55;;;;;;;7.30;4.13;;;;;;;;;;5119569;27;20396;-72
2023/02/08 10:34:37;;;;;;;4.97;3.40;;;;;;;;;;5138631;27;20133;-72
2023/02/08 10:37:13;;;;;;;6.45;3.42;;;;;;;;;;5131468;27;20482;-72
2023/02/08 10:39:39;;;;;;;6.50;3.67;;;;;;;;;;5137453;27;20595;-72
2023/02/08 10:42:10;;;;;;;9.15;4.55;;;;;;;;;;5134534;27;20058;-71
2023/02/08 10:44:44;;;;;;;6.85;4.38;;;;;;;;;;5134306;27;20022;-71
2023/02/08 10:47:19;;;;;;;5.97;4.32;;;;;;;;;;5135866;27;20046;-71
2023/02/08 10:50:12;;;;;;;8.52;4.03;;;;;;;;;;5138065;27;20588;-71
2023/02/08 10:52:38;;;;;;;5.00;3.13;;;;;;;;;;5131426;27;20624;-71
2023/02/08 10:55:12;;;;;;;6.85;3.28;;;;;;;;;;5131067;27;20037;-71
2023/02/08 10:57:39;;;;;;;8.55;3.30;;;;;;;;;;5130285;27;20090;-71
2023/02/08 11:00:08;;;;;;;7.20;3.40;;;;;;;;;;5133929;27;20041;-72
2023/02/08 11:02:39;;;;;;;4.53;2.53;;;;;;;;;;5141464;27;20033;-73
2023/02/08 11:05:07;;;;;;;3.97;3.10;;;;;;;;;;5134632;27;20249;-72
2023/02/08 11:07:33;;;;;;;6.00;3.30;;;;;;;;;;5139799;27;20019;-72
2023/02/08 11:10:17;;;;;;;9.43;3.80;;;;;;;;;;5136651;27;20110;-72
2023/02/08 11:13:02;;;;;;;5.50;3.72;;;;;;;;;;5134141;27;20030;-71
2023/02/08 11:15:58;;;;;;;8.20;3.10;;;;;;;;;;5115934;27;20029;-72
2023/02/08 11:18:30;;;;;;;6.90;3.03;;;;;;;;;;5117100;27;20038;-72
2023/02/08 11:20:59;;;;;;;6.75;3.50;;;;;;;;;;5135467;27;20497;-72
2023/02/08 11:23:27;;;;;;;5.90;3.25;;;;;;;;;;5134377;27;20534;-72
2023/02/08 11:25:54;;;;;;;11.98;5.20;;;;;;;;;;5132724;27;20038;-72
2023/02/08 11:28:22;;;;;;;6.35;3.38;;;;;;;;;;5115511;27;20877;-71
2023/02/08 11:31:09;;;;;;;4.90;3.08;;;;;;;;;;5132563;27;20088;-72
2023/02/08 11:33:35;;;;;;;11.25;6.78;;;;;;;;;;5119287;27;20078;-72
2023/02/08 11:36:06;;;;;;;5.90;3.60;;;;;;;;;;5138829;27;20031;-72
2023/02/08 11:38:34;;;;;;;8.63;3.23;;;;;;;;;;5134144;27;20030;-72
2023/02/08 11:41:02;;;;;;;4.90;3.05;;;;;;;;;;5133853;27;20064;-72
2023/02/08 11:43:35;;;;;;;5.47;2.67;;;;;;;;;;5137360;27;20543;-72
2023/02/08 11:46:03;;;;;;;28.95;17.33;;;;;;;;;;5138703;27;20535;-71
2023/02/08 11:48:29;;;;;;;6.00;3.60;;;;;;;;;;5137394;27;20525;-71
2023/02/08 11:50:57;;;;;;;7.50;3.60;;;;;;;;;;5140609;27;20158;-71
2023/02/08 11:53:27;;;;;;;4.07;3.00;;;;;;;;;;5145493;27;20466;-71
2023/02/08 11:56:06;;;;;;;7.72;3.95;;;;;;;;;;5145708;27;20027;-72
2023/02/08 11:58:32;;;;;;;9.27;3.20;;;;;;;;;;5116841;27;20026;-71
2023/02/08 12:01:06;;;;;;;3.55;3.05;;;;;;;;;;5145469;27;20019;-71
2023/02/08 12:03:35;;;;;;;5.63;3.30;;;;;;;;;;5144408;27;20033;-71
2023/02/08 12:06:19;;;;;;;6.47;3.15;;;;;;;;;;5145801;27;20046;-71
2023/02/08 12:08:48;;;;;;;10.93;3.08;;;;;;;;;;5144335;27;20092;-72
2023/02/08 12:11:20;;;;;;;5.82;3.10;;;;;;;;;;5144168;27;20061;-72
2023/02/08 12:13:59;;;;;;;4.80;3.60;;;;;;;;;;5146131;27;20023;-72
2023/02/08 12:16:32;;;;;;;6.60;3.42;;;;;;;;;;5144632;27;20022;-72
2023/02/08 12:19:17;;;;;;;6.43;3.60;;;;;;;;;;5115265;27;20047;-71
2023/02/08 12:21:44;;;;;;;7.47;5.03;;;;;;;;;;5110396;27;20058;-72
2023/02/08 12:24:16;;;;;;;5.88;4.57;;;;;;;;;;5109791;27;20019;-71
2023/02/08 12:27:07;;;;;;;6.05;3.88;;;;;;;;;;5104416;27;20111;-72
2023/02/08 12:29:41;;;;;;;6.25;4.05;;;;;;;;;;5101764;27;20106;-72
2023/02/08 12:32:27;;;;;;;5.93;4.22;;;;;;;;;;5114059;27;20122;-71
2023/02/08 12:34:53;;;;;;;7.15;3.78;;;;;;;;;;5113658;27;20031;-71
2023/02/08 12:43:12;;;;;;;5.90;2.90;;;;;;;;;;5105592;27;20043;-71
2023/02/08 12:45:54;;;;;;;5.60;2.90;;;;;;;;;;5123445;27;20135;-73
2023/02/08 12:48:32;;;;;;;4.70;3.30;;;;;;;;;;5112213;27;20532;-73
2023/02/08 12:51:17;;;;;;;5.72;2.95;;;;;;;;;;5116426;27;20107;-72
2023/02/08 12:53:45;;;;;;;5.75;3.20;;;;;;;;;;5107450;27;20031;-71
2023/02/08 12:56:15;;;;;;;6.03;3.10;;;;;;;;;;5115892;27;20019;-71
2023/02/08 12:58:51;;;;;;;5.43;3.25;;;;;;;;;;5091803;27;20115;-72
2023/02/08 13:01:26;;;;;;;8.70;3.20;;;;;;;;;;5098605;27;20050;-72
2023/02/08 13:04:13;;;;;;;4.05;2.90;;;;;;;;;;5100271;27;20051;-71
2023/02/08 13:06:41;;;;;;;5.97;2.92;;;;;;;;;;5101095;27;20034;-73
2023/02/08 13:09:14;;;;;;;5.05;3.00;;;;;;;;;;5100999;27;20084;-71
2023/02/08 13:11:51;;;;;;;4.65;3.00;;;;;;;;;;5101053;27;20028;-71
2023/02/08 13:14:25;;;;;;;4.63;3.08;;;;;;;;;;5100543;27;20074;-73
2023/02/08 13:16:54;;;;;;;6.57;3.10;;;;;;;;;;5097405;27;20497;-72
2023/02/08 13:19:23;;;;;;;7.50;5.10;;;;;;;;;;5114364;27;20814;-73
2023/02/08 13:21:51;;;;;;;4.57;3.45;;;;;;;;;;5140913;27;20071;-72
2023/02/08 13:24:33;;;;;;;5.75;3.08;;;;;;;;;;5137014;27;20178;-72
2023/02/08 13:26:59;;;;;;;5.55;3.60;;;;;;;;;;5137420;27;20074;-73
2023/02/08 13:29:26;;;;;;;5.32;3.05;;;;;;;;;;5132934;27;20023;-72
2023/02/08 13:32:01;;;;;;;8.25;3.22;;;;;;;;;;5130924;27;20500;-72
2023/02/08 13:34:36;;;;;;;4.93;3.30;;;;;;;;;;5133606;27;20609;-73
2023/02/08 13:37:04;;;;;;;7.35;3.63;;;;;;;;;;5134743;27;20026;-72
2023/02/08 13:39:34;;;;;;;4.00;3.03;;;;;;;;;;5133790;27;20027;-72
2023/02/08 13:42:01;;;;;;;8.73;3.55;;;;;;;;;;5134496;27;20019;-72
2023/02/08 13:44:32;;;;;;;4.50;3.00;;;;;;;;;;5140804;27;20094;-72
2023/02/08 13:46:59;;;;;;;5.40;2.92;;;;;;;;;;5136454;27;20027;-72
2023/02/08 13:49:42;;;;;;;5.53;3.50;;;;;;;;;;5141518;27;20679;-72
2023/02/08 13:52:09;;;;;;;5.10;3.75;;;;;;;;;;5130159;27;20027;-72
2023/02/08 13:54:35;;;;;;;5.35;3.20;;;;;;;;;;5140723;27;20098;-72
2023/02/08 13:57:01;;;;;;;5.47;3.13;;;;;;;;;;5137020;27;20011;-73
2023/02/08 13:59:34;;;;;;;5.65;3.80;;;;;;;;;;5137260;27;20592;-72
2023/02/08 14:02:18;;;;;;;5.65;4.05;;;;;;;;;;5139956;27;20030;-72
2023/02/08 14:04:50;;;;;;;4.47;3.05;;;;;;;;;;5137176;27;21565;-72
2023/02/08 14:07:35;;;;;;;5.88;3.25;;;;;;;;;;5138284;27;20019;-73
2023/02/08 14:10:07;;;;;;;11.98;7.43;;;;;;;;;;5137377;27;20124;-72
2023/02/08 14:12:39;;;;;;;9.50;5.78;;;;;;;;;;5138781;27;20031;-72
2023/02/08 14:15:14;;;;;;;7.25;5.28;;;;;;;;;;5137791;27;20882;-72
2023/02/08 14:17:45;;;;;;;5.82;3.22;;;;;;;;;;5139597;27;20027;-72
2023/02/08 14:20:18;;;;;;;6.95;3.88;;;;;;;;;;5138992;27;20043;-73
2023/02/08 14:22:53;;;;;;;10.75;4.70;;;;;;;;;;5134255;27;20015;-73
2023/02/08 14:25:24;;;;;;;5.57;4.28;;;;;;;;;;5119278;27;20115;-72
2023/02/08 14:27:52;;;;;;;8.18;5.03;;;;;;;;;;5132801;27;20027;-72
2023/02/08 14:30:18;;;;;;;5.82;4.30;;;;;;;;;;5139222;27;20050;-72
2023/02/08 14:32:50;;;;;;;5.10;3.72;;;;;;;;;;5129233;27;20015;-71
2023/02/08 14:35:21;;;;;;;5.03;2.95;;;;;;;;;;5134875;27;20095;-71
2023/02/08 14:37:48;;;;;;;7.40;4.22;;;;;;;;;;5135911;27;20079;-71
2023/02/08 14:40:21;;;;;;;9.23;6.22;;;;;;;;;;5138960;27;20035;-72
2023/02/08 14:42:57;;;;;;;6.28;4.72;;;;;;;;;;5134879;27;20130;-72
2023/02/08 14:45:28;;;;;;;6.65;4.03;;;;;;;;;;5135244;27;20027;-71
2023/02/08 14:47:56;;;;;;;5.90;4.38;;;;;;;;;;5133751;27;20037;-71
2023/02/08 14:50:25;;;;;;;6.82;4.68;;;;;;;;;;5134110;27;20027;-71
2023/02/08 14:53:01;;;;;;;4.95;3.45;;;;;;;;;;5135375;27;20033;-71
2023/02/08 14:55:30;;;;;;;8.07;3.05;;;;;;;;;;5137899;27;20027;-71
2023/02/08 14:57:58;;;;;;;7.93;4.20;;;;;;;;;;5138730;27;20025;-72
2023/02/08 15:00:36;;;;;;;5.80;3.75;;;;;;;;;;5137155;27;20097;-71
2023/02/08 15:03:04;;;;;;;8.30;3.63;;;;;;;;;;5134878;27;20027;-71
2023/02/08 15:05:34;;;;;;;6.32;3.90;;;;;;;;;;5123627;27;20016;-72